Aviation Digital Data Service (ADDS)

Output produced by METARs form (2305 UTC 20 January 2019)
found at http://www.aviationweather.gov/metar/data/
 
METAR text: EGUL 202156Z AUTO 00000KT 9999 SCT038 M04/M06 A3021 RMK AO2 SLP234 T10451063 $
Conditions at: EGUL (LAKENHEATH RAF , GB) observed 2156 UTC 20 January 2019
Temperature: -4.5°C (24°F)
Dewpoint: -6.3°C (21°F) [RH = 87%]
Pressure (altimeter): 30.21 inches Hg (1023.1 mb)
[Sea-level pressure: 1023.4 mb]
Winds: calm
Visibility: 6 or more miles (10+ km)
Ceiling: at least 12,000 feet AGL
Clouds: scattered clouds at 3800 feet AGL
Weather:
SOME DATA ABOVE MAY BE INACCURATE!!!
"$" is an indication the sensor requires maintenance

METAR text: EGUL 202056Z AUTO 00000KT 9999 CLR M04/M06 A3019 RMK AO2 SLP227 T10441064 52016 $
Conditions at: EGUL (LAKENHEATH RAF , GB) observed 2056 UTC 20 January 2019
Temperature: -4.4°C (24°F)
Dewpoint: -6.4°C (20°F) [RH = 86%]
Pressure (altimeter): 30.19 inches Hg (1022.4 mb)
[Sea-level pressure: 1022.7 mb]
Winds: calm
Visibility: 6 or more miles (10+ km)
Ceiling: at least 12,000 feet AGL
Clouds: sky clear below 12,000 feet AGL
Weather:
SOME DATA ABOVE MAY BE INACCURATE!!!
"$" is an indication the sensor requires maintenance

METAR text: EGUL 201956Z AUTO 00000KT 9999 CLR M04/M06 A3018 RMK AO2 SLP224 T10431061 $
Conditions at: EGUL (LAKENHEATH RAF , GB) observed 1956 UTC 20 January 2019
Temperature: -4.3°C (24°F)
Dewpoint: -6.1°C (21°F) [RH = 87%]
Pressure (altimeter): 30.18 inches Hg (1022.1 mb)
[Sea-level pressure: 1022.4 mb]
Winds: calm
Visibility: 6 or more miles (10+ km)
Ceiling: at least 12,000 feet AGL
Clouds: sky clear below 12,000 feet AGL
Weather:
SOME DATA ABOVE MAY BE INACCURATE!!!
"$" is an indication the sensor requires maintenance

METAR text: EGUL 201856Z AUTO 00000KT 9999 CLR M03/M05 A3016 RMK AO2 SLP217 T10331050 $
Conditions at: EGUL (LAKENHEATH RAF , GB) observed 1856 UTC 20 January 2019
Temperature: -3.3°C (26°F)
Dewpoint: -5.0°C (23°F) [RH = 88%]
Pressure (altimeter): 30.16 inches Hg (1021.4 mb)
[Sea-level pressure: 1021.7 mb]
Winds: calm
Visibility: 6 or more miles (10+ km)
Ceiling: at least 12,000 feet AGL
Clouds: sky clear below 12,000 feet AGL
Weather:
SOME DATA ABOVE MAY BE INACCURATE!!!
"$" is an indication the sensor requires maintenance

METAR text: EGUL 201756Z AUTO 00000KT 9999 CLR M03/M05 A3015 RMK AO2 SLP214 60000 T10261046 10048 21026 52021 $
Conditions at: EGUL (LAKENHEATH RAF , GB) observed 1756 UTC 20 January 2019
Temperature: -2.6°C (27°F)
Dewpoint: -4.6°C (24°F) [RH = 86%]
Pressure (altimeter): 30.15 inches Hg (1021.1 mb)
[Sea-level pressure: 1021.4 mb]
Winds: calm
Visibility: 6 or more miles (10+ km)
Ceiling: at least 12,000 feet AGL
Clouds: sky clear below 12,000 feet AGL
Weather:
SOME DATA ABOVE MAY BE INACCURATE!!!
"$" is an indication the sensor requires maintenance

METAR text: EGUL 201656Z AUTO 00000KT 9999 CLR M01/M04 A3013 RMK AO2 SLP207 T10121037 $
Conditions at: EGUL (LAKENHEATH RAF , GB) observed 1656 UTC 20 January 2019
Temperature: -1.2°C (30°F)
Dewpoint: -3.7°C (25°F) [RH = 83%]
Pressure (altimeter): 30.13 inches Hg (1020.4 mb)
[Sea-level pressure: 1020.7 mb]
Winds: calm
Visibility: 6 or more miles (10+ km)
Ceiling: at least 12,000 feet AGL
Clouds: sky clear below 12,000 feet AGL
Weather:
SOME DATA ABOVE MAY BE INACCURATE!!!
"$" is an indication the sensor requires maintenance

METAR text: EGUL 201556Z AUTO 00000KT 9999 CLR 03/M02 A3011 RMK AO2 SLP200 T00301023 $
Conditions at: EGUL (LAKENHEATH RAF , GB) observed 1556 UTC 20 January 2019
Temperature: 3.0°C (37°F)
Dewpoint: -2.3°C (28°F) [RH = 68%]
Pressure (altimeter): 30.11 inches Hg (1019.7 mb)
[Sea-level pressure: 1020.0 mb]
Winds: calm
Visibility: 6 or more miles (10+ km)
Ceiling: at least 12,000 feet AGL
Clouds: sky clear below 12,000 feet AGL
Weather:
SOME DATA ABOVE MAY BE INACCURATE!!!
"$" is an indication the sensor requires maintenance

METAR text: EGUL 201456Z AUTO 32003KT 9999 FEW030 04/M02 A3008 RMK AO2 SLP190 60000 T00441022 51005 $
Conditions at: EGUL (LAKENHEATH RAF , GB) observed 1456 UTC 20 January 2019
Temperature: 4.4°C (40°F)
Dewpoint: -2.2°C (28°F) [RH = 62%]
Pressure (altimeter): 30.08 inches Hg (1018.7 mb)
[Sea-level pressure: 1019.0 mb]
Winds: from the NW (320 degrees) at 3 MPH (3 knots; 1.5 m/s)
Visibility: 6 or more miles (10+ km)
Ceiling: at least 12,000 feet AGL
Clouds: few clouds at 3000 feet AGL
Weather:
SOME DATA ABOVE MAY BE INACCURATE!!!
"$" is an indication the sensor requires maintenance

METAR text: EGUL 201356Z AUTO 06005KT 9999 FEW028 04/M02 A3007 RMK AO2 RAB13E22 SLP186 P0000 T00441020 $
Conditions at: EGUL (LAKENHEATH RAF , GB) observed 1356 UTC 20 January 2019
Temperature: 4.4°C (40°F)
Dewpoint: -2.0°C (28°F) [RH = 63%]
Pressure (altimeter): 30.07 inches Hg (1018.4 mb)
[Sea-level pressure: 1018.6 mb]
Winds: from the ENE (60 degrees) at 6 MPH (5 knots; 2.6 m/s)
Visibility: 6 or more miles (10+ km)
Ceiling: at least 12,000 feet AGL
Clouds: few clouds at 2800 feet AGL
Weather:
SOME DATA ABOVE MAY BE INACCURATE!!!
"$" is an indication the sensor requires maintenance

METAR text: EGUL 201322Z AUTO 04003KT 9999 FEW026 04/M02 A3007 RMK AO2 RAB13E22 SLP187 $
Conditions at: EGUL (LAKENHEATH RAF , GB) observed 1322 UTC 20 January 2019
Temperature: 4.0°C (39°F)
Dewpoint: -2.0°C (28°F) [RH = 65%]
Pressure (altimeter): 30.07 inches Hg (1018.4 mb)
[Sea-level pressure: 1018.7 mb]
Winds: from the NE (40 degrees) at 3 MPH (3 knots; 1.5 m/s)
Visibility: 6 or more miles (10+ km)
Ceiling: at least 12,000 feet AGL
Clouds: few clouds at 2600 feet AGL
Weather:
SOME DATA ABOVE MAY BE INACCURATE!!!
"$" is an indication the sensor requires maintenance

METAR text: EGUL 201313Z AUTO 06005KT 9999 -RA SCT027 05/M02 A3007 RMK AO2 RAB13 SLP186 $
Conditions at: EGUL (LAKENHEATH RAF , GB) observed 1313 UTC 20 January 2019
Temperature: 5.0°C (41°F)
Dewpoint: -2.0°C (28°F) [RH = 60%]
Pressure (altimeter): 30.07 inches Hg (1018.4 mb)
[Sea-level pressure: 1018.6 mb]
Winds: from the ENE (60 degrees) at 6 MPH (5 knots; 2.6 m/s)
Visibility: 6 or more miles (10+ km)
Ceiling: at least 12,000 feet AGL
Clouds: scattered clouds at 2700 feet AGL
Weather: -RA  (light rain)
SOME DATA ABOVE MAY BE INACCURATE!!!
"$" is an indication the sensor requires maintenance

METAR text: EGUL 201256Z AUTO 02004KT 9999 CLR 05/M01 A3007 RMK AO2 SLP186 T00471009 $
Conditions at: EGUL (LAKENHEATH RAF , GB) observed 1256 UTC 20 January 2019
Temperature: 4.7°C (40°F)
Dewpoint: -0.9°C (30°F) [RH = 67%]
Pressure (altimeter): 30.07 inches Hg (1018.4 mb)
[Sea-level pressure: 1018.6 mb]
Winds: from the NNE (20 degrees) at 5 MPH (4 knots; 2.1 m/s)
Visibility: 6 or more miles (10+ km)
Ceiling: at least 12,000 feet AGL
Clouds: sky clear below 12,000 feet AGL
Weather:
SOME DATA ABOVE MAY BE INACCURATE!!!
"$" is an indication the sensor requires maintenance

METAR text: EGUL 201156Z AUTO 00000KT 9999 CLR 03/00 A3007 RMK AO2 SLP187 T00331003 10033 21060 52017 $
Conditions at: EGUL (LAKENHEATH RAF , GB) observed 1156 UTC 20 January 2019
Temperature: 3.3°C (38°F)
Dewpoint: -0.3°C (31°F) [RH = 77%]
Pressure (altimeter): 30.07 inches Hg (1018.4 mb)
[Sea-level pressure: 1018.7 mb]
Winds: calm
Visibility: 6 or more miles (10+ km)
Ceiling: at least 12,000 feet AGL
Clouds: sky clear below 12,000 feet AGL
Weather:
SOME DATA ABOVE MAY BE INACCURATE!!!
"$" is an indication the sensor requires maintenance

METAR text: EGUL 201056Z AUTO 00000KT 9999 CLR 01/M02 A3006 RMK AO2 SLP183 T00111020 $
Conditions at: EGUL (LAKENHEATH RAF , GB) observed 1056 UTC 20 January 2019
Temperature: 1.1°C (34°F)
Dewpoint: -2.0°C (28°F) [RH = 80%]
Pressure (altimeter): 30.06 inches Hg (1018.0 mb)
[Sea-level pressure: 1018.3 mb]
Winds: calm
Visibility: 6 or more miles (10+ km)
Ceiling: at least 12,000 feet AGL
Clouds: sky clear below 12,000 feet AGL
Weather:
SOME DATA ABOVE MAY BE INACCURATE!!!
"$" is an indication the sensor requires maintenance

METAR text: EGUL 200956Z AUTO 00000KT 9999 CLR M03/M05 A3004 RMK AO2 SLP176 T10311053 $
Conditions at: EGUL (LAKENHEATH RAF , GB) observed 0956 UTC 20 January 2019
Temperature: -3.1°C (26°F)
Dewpoint: -5.3°C (22°F) [RH = 85%]
Pressure (altimeter): 30.04 inches Hg (1017.4 mb)
[Sea-level pressure: 1017.6 mb]
Winds: calm
Visibility: 6 or more miles (10+ km)
Ceiling: at least 12,000 feet AGL
Clouds: sky clear below 12,000 feet AGL
Weather:
SOME DATA ABOVE MAY BE INACCURATE!!!
"$" is an indication the sensor requires maintenance

METAR text: EGUL 200856Z AUTO 00000KT 9999 CLR M05/M07 A3002 RMK AO2 SLP170 T10491067 52026 $
Conditions at: EGUL (LAKENHEATH RAF , GB) observed 0856 UTC 20 January 2019
Temperature: -4.9°C (23°F)
Dewpoint: -6.7°C (20°F) [RH = 87%]
Pressure (altimeter): 30.02 inches Hg (1016.7 mb)
[Sea-level pressure: 1017.0 mb]
Winds: calm
Visibility: 6 or more miles (10+ km)
Ceiling: at least 12,000 feet AGL
Clouds: sky clear below 12,000 feet AGL
Weather:
SOME DATA ABOVE MAY BE INACCURATE!!!
"$" is an indication the sensor requires maintenance

METAR text: EGUL 200756Z AUTO 00000KT 9999 CLR M06/M07 A2999 RMK AO2 SLP160 T10581075 $
Conditions at: EGUL (LAKENHEATH RAF , GB) observed 0756 UTC 20 January 2019
Temperature: -5.8°C (22°F)
Dewpoint: -7.5°C (18°F) [RH = 88%]
Pressure (altimeter): 29.99 inches Hg (1015.7 mb)
[Sea-level pressure: 1016.0 mb]
Winds: calm
Visibility: 6 or more miles (10+ km)
Ceiling: at least 12,000 feet AGL
Clouds: sky clear below 12,000 feet AGL
Weather:
SOME DATA ABOVE MAY BE INACCURATE!!!
"$" is an indication the sensor requires maintenance

METAR text: EGUL 200656Z AUTO 00000KT 9999 CLR M05/M06 A2996 RMK AO2 SLP149 T10501065 $
Conditions at: EGUL (LAKENHEATH RAF , GB) observed 0656 UTC 20 January 2019
Temperature: -5.0°C (23°F)
Dewpoint: -6.5°C (20°F) [RH = 89%]
Pressure (altimeter): 29.96 inches Hg (1014.6 mb)
[Sea-level pressure: 1014.9 mb]
Winds: calm
Visibility: 6 or more miles (10+ km)
Ceiling: at least 12,000 feet AGL
Clouds: sky clear below 12,000 feet AGL
Weather:
SOME DATA ABOVE MAY BE INACCURATE!!!
"$" is an indication the sensor requires maintenance

METAR text: EGUL 200556Z AUTO 05003KT 9999 CLR M06/M07 A2994 RMK AO2 SLP143 T10571072 11026 21058 52009 $
Conditions at: EGUL (LAKENHEATH RAF , GB) observed 0556 UTC 20 January 2019
Temperature: -5.7°C (22°F)
Dewpoint: -7.2°C (19°F) [RH = 89%]
Pressure (altimeter): 29.94 inches Hg (1014.0 mb)
[Sea-level pressure: 1014.3 mb]
Winds: from the NE (50 degrees) at 3 MPH (3 knots; 1.5 m/s)
Visibility: 6 or more miles (10+ km)
Ceiling: at least 12,000 feet AGL
Clouds: sky clear below 12,000 feet AGL
Weather:
SOME DATA ABOVE MAY BE INACCURATE!!!
"$" is an indication the sensor requires maintenance

METAR text: EGUL 200456Z AUTO 07004KT 9999 CLR M04/M05 A2993 RMK AO2 SLP139 T10381052 $
Conditions at: EGUL (LAKENHEATH RAF , GB) observed 0456 UTC 20 January 2019
Temperature: -3.8°C (25°F)
Dewpoint: -5.2°C (23°F) [RH = 90%]
Pressure (altimeter): 29.93 inches Hg (1013.6 mb)
[Sea-level pressure: 1013.9 mb]
Winds: from the ENE (70 degrees) at 5 MPH (4 knots; 2.1 m/s)
Visibility: 6 or more miles (10+ km)
Ceiling: at least 12,000 feet AGL
Clouds: sky clear below 12,000 feet AGL
Weather:
SOME DATA ABOVE MAY BE INACCURATE!!!
"$" is an indication the sensor requires maintenance

METAR text: EGUL 200356Z AUTO 06003KT 9999 CLR M04/M05 A2992 RMK AO2 SLP136 T10381052 $
Conditions at: EGUL (LAKENHEATH RAF , GB) observed 0356 UTC 20 January 2019
Temperature: -3.8°C (25°F)
Dewpoint: -5.2°C (23°F) [RH = 90%]
Pressure (altimeter): 29.92 inches Hg (1013.3 mb)
[Sea-level pressure: 1013.6 mb]
Winds: from the ENE (60 degrees) at 3 MPH (3 knots; 1.5 m/s)
Visibility: 6 or more miles (10+ km)
Ceiling: at least 12,000 feet AGL
Clouds: sky clear below 12,000 feet AGL
Weather:
SOME DATA ABOVE MAY BE INACCURATE!!!
"$" is an indication the sensor requires maintenance

METAR text: EGUL 200256Z AUTO 07003KT 9999 CLR M03/M05 A2991 RMK AO2 SLP132 T10351051 52010 $
Conditions at: EGUL (LAKENHEATH RAF , GB) observed 0256 UTC 20 January 2019
Temperature: -3.5°C (26°F)
Dewpoint: -5.1°C (23°F) [RH = 89%]
Pressure (altimeter): 29.91 inches Hg (1013.0 mb)
[Sea-level pressure: 1013.2 mb]
Winds: from the ENE (70 degrees) at 3 MPH (3 knots; 1.5 m/s)
Visibility: 6 or more miles (10+ km)
Ceiling: at least 12,000 feet AGL
Clouds: sky clear below 12,000 feet AGL
Weather:
SOME DATA ABOVE MAY BE INACCURATE!!!
"$" is an indication the sensor requires maintenance

METAR text: EGUL 200156Z AUTO 05004KT 9999 CLR M03/M04 A2990 RMK AO2 SLP129 T10281044 $
Conditions at: EGUL (LAKENHEATH RAF , GB) observed 0156 UTC 20 January 2019
Temperature: -2.8°C (27°F)
Dewpoint: -4.4°C (24°F) [RH = 89%]
Pressure (altimeter): 29.90 inches Hg (1012.6 mb)
[Sea-level pressure: 1012.9 mb]
Winds: from the NE (50 degrees) at 5 MPH (4 knots; 2.1 m/s)
Visibility: 6 or more miles (10+ km)
Ceiling: at least 12,000 feet AGL
Clouds: sky clear below 12,000 feet AGL
Weather:
SOME DATA ABOVE MAY BE INACCURATE!!!
"$" is an indication the sensor requires maintenance

METAR text: EGUL 200056Z AUTO 06003KT 9999 CLR M03/M05 A2989 RMK AO2 SLP125 T10321048 $
Conditions at: EGUL (LAKENHEATH RAF , GB) observed 0056 UTC 20 January 2019
Temperature: -3.2°C (26°F)
Dewpoint: -4.8°C (23°F) [RH = 89%]
Pressure (altimeter): 29.89 inches Hg (1012.3 mb)
[Sea-level pressure: 1012.5 mb]
Winds: from the ENE (60 degrees) at 3 MPH (3 knots; 1.5 m/s)
Visibility: 6 or more miles (10+ km)
Ceiling: at least 12,000 feet AGL
Clouds: sky clear below 12,000 feet AGL
Weather:
SOME DATA ABOVE MAY BE INACCURATE!!!
"$" is an indication the sensor requires maintenance

METAR text: EGUL 192356Z AUTO 06003KT 9999 CLR M03/M04 A2988 RMK AO2 SLP122 T10281045 10026 21028 400541028 52011 $
Conditions at: EGUL (LAKENHEATH RAF , GB) observed 2356 UTC 19 January 2019
Temperature: -2.8°C (27°F)
Dewpoint: -4.5°C (24°F) [RH = 88%]
Pressure (altimeter): 29.88 inches Hg (1011.9 mb)
[Sea-level pressure: 1012.2 mb]
Winds: from the ENE (60 degrees) at 3 MPH (3 knots; 1.5 m/s)
Visibility: 6 or more miles (10+ km)
Ceiling: at least 12,000 feet AGL
Clouds: sky clear below 12,000 feet AGL
Weather:
SOME DATA ABOVE MAY BE INACCURATE!!!
"$" is an indication the sensor requires maintenance

METAR text: EGUL 192256Z AUTO 08004KT 9999 CLR M02/M04 A2987 RMK AO2 SLP119 T10231040 $
Conditions at: EGUL (LAKENHEATH RAF , GB) observed 2256 UTC 19 January 2019
Temperature: -2.3°C (28°F)
Dewpoint: -4.0°C (25°F) [RH = 88%]
Pressure (altimeter): 29.87 inches Hg (1011.6 mb)
[Sea-level pressure: 1011.9 mb]
Winds: from the E (80 degrees) at 5 MPH (4 knots; 2.1 m/s)
Visibility: 6 or more miles (10+ km)
Ceiling: at least 12,000 feet AGL
Clouds: sky clear below 12,000 feet AGL
Weather:
SOME DATA ABOVE MAY BE INACCURATE!!!
"$" is an indication the sensor requires maintenance

METAR text: EGUL 192156Z AUTO 09003KT 9999 CLR M01/M03 A2986 RMK AO2 SLP115 T10121029 $
Conditions at: EGUL (LAKENHEATH RAF , GB) observed 2156 UTC 19 January 2019
Temperature: -1.2°C (30°F)
Dewpoint: -2.9°C (27°F) [RH = 88%]
Pressure (altimeter): 29.86 inches Hg (1011.3 mb)
[Sea-level pressure: 1011.5 mb]
Winds: from the E (90 degrees) at 3 MPH (3 knots; 1.5 m/s)
Visibility: 6 or more miles (10+ km)
Ceiling: at least 12,000 feet AGL
Clouds: sky clear below 12,000 feet AGL
Weather:
SOME DATA ABOVE MAY BE INACCURATE!!!
"$" is an indication the sensor requires maintenance

METAR text: EGUL 192056Z AUTO 09004KT 9999 CLR 00/M02 A2985 RMK AO2 SLP112 T00031021 52010 $
Conditions at: EGUL (LAKENHEATH RAF , GB) observed 2056 UTC 19 January 2019
Temperature: 0.3°C (33°F)
Dewpoint: -2.1°C (28°F) [RH = 84%]
Pressure (altimeter): 29.85 inches Hg (1010.9 mb)
[Sea-level pressure: 1011.2 mb]
Winds: from the E (90 degrees) at 5 MPH (4 knots; 2.1 m/s)
Visibility: 6 or more miles (10+ km)
Ceiling: at least 12,000 feet AGL
Clouds: sky clear below 12,000 feet AGL
Weather:
SOME DATA ABOVE MAY BE INACCURATE!!!
"$" is an indication the sensor requires maintenance

METAR text: EGUL 191956Z AUTO 12006KT 9999 FEW050 SCT070 02/M01 A2984 RMK AO2 SLP109 T00161013 $
Conditions at: EGUL (LAKENHEATH RAF , GB) observed 1956 UTC 19 January 2019
Temperature: 1.6°C (35°F)
Dewpoint: -1.3°C (30°F) [RH = 81%]
Pressure (altimeter): 29.84 inches Hg (1010.6 mb)
[Sea-level pressure: 1010.9 mb]
Winds: from the ESE (120 degrees) at 7 MPH (6 knots; 3.1 m/s)
Visibility: 6 or more miles (10+ km)
Ceiling: at least 12,000 feet AGL
Clouds: few clouds at 5000 feet AGL
scattered clouds at 7000 feet AGL
Weather:
SOME DATA ABOVE MAY BE INACCURATE!!!
"$" is an indication the sensor requires maintenance

METAR text: EGUL 191856Z AUTO 12005KT 9999 SCT050 BKN060 BKN070 02/M01 A2983 RMK AO2 SLP105 T00231010 $
Conditions at: EGUL (LAKENHEATH RAF , GB) observed 1856 UTC 19 January 2019
Temperature: 2.3°C (36°F)
Dewpoint: -1.0°C (30°F) [RH = 79%]
Pressure (altimeter): 29.83 inches Hg (1010.2 mb)
[Sea-level pressure: 1010.5 mb]
Winds: from the ESE (120 degrees) at 6 MPH (5 knots; 2.6 m/s)
Visibility: 6 or more miles (10+ km)
Ceiling: 6000 feet AGL
Clouds: scattered clouds at 5000 feet AGL
broken clouds at 6000 feet AGL
broken clouds at 7000 feet AGL
Weather:
SOME DATA ABOVE MAY BE INACCURATE!!!
"$" is an indication the sensor requires maintenance

METAR text: EGUL 191756Z AUTO 14003KT 9999 BKN055 03/M01 A2982 RMK AO2 SLP102 T00261010 10054 20026 52010 $
Conditions at: EGUL (LAKENHEATH RAF , GB) observed 1756 UTC 19 January 2019
Temperature: 2.6°C (37°F)
Dewpoint: -1.0°C (30°F) [RH = 77%]
Pressure (altimeter): 29.82 inches Hg (1009.9 mb)
[Sea-level pressure: 1010.2 mb]
Winds: from the SE (140 degrees) at 3 MPH (3 knots; 1.5 m/s)
Visibility: 6 or more miles (10+ km)
Ceiling: 5500 feet AGL
Clouds: broken clouds at 5500 feet AGL
Weather:
SOME DATA ABOVE MAY BE INACCURATE!!!
"$" is an indication the sensor requires maintenance

METAR text: EGUL 191656Z AUTO 12005KT 9999 SCT045 BKN050 03/M01 A2981 RMK AO2 SLP098 T00301010 $
Conditions at: EGUL (LAKENHEATH RAF , GB) observed 1656 UTC 19 January 2019
Temperature: 3.0°C (37°F)
Dewpoint: -1.0°C (30°F) [RH = 75%]
Pressure (altimeter): 29.81 inches Hg (1009.6 mb)
[Sea-level pressure: 1009.8 mb]
Winds: from the ESE (120 degrees) at 6 MPH (5 knots; 2.6 m/s)
Visibility: 6 or more miles (10+ km)
Ceiling: 5000 feet AGL
Clouds: scattered clouds at 4500 feet AGL
broken clouds at 5000 feet AGL
Weather:
SOME DATA ABOVE MAY BE INACCURATE!!!
"$" is an indication the sensor requires maintenance

METAR text: EGUL 191556Z AUTO 13007KT 9999 OVC045 04/M01 A2980 RMK AO2 SLP095 T00411009 $
Conditions at: EGUL (LAKENHEATH RAF , GB) observed 1556 UTC 19 January 2019
Temperature: 4.1°C (39°F)
Dewpoint: -0.9°C (30°F) [RH = 70%]
Pressure (altimeter): 29.80 inches Hg (1009.2 mb)
[Sea-level pressure: 1009.5 mb]
Winds: from the SE (130 degrees) at 8 MPH (7 knots; 3.6 m/s)
Visibility: 6 or more miles (10+ km)
Ceiling: 4500 feet AGL
Clouds: overcast cloud deck at 4500 feet AGL
Weather:
SOME DATA ABOVE MAY BE INACCURATE!!!
"$" is an indication the sensor requires maintenance

METAR text: EGUL 191456Z AUTO 13009KT 9999 OVC044 05/M01 A2979 RMK AO2 SLP092 T00481008 57010 $
Conditions at: EGUL (LAKENHEATH RAF , GB) observed 1456 UTC 19 January 2019
Temperature: 4.8°C (41°F)
Dewpoint: -0.8°C (31°F) [RH = 67%]
Pressure (altimeter): 29.79 inches Hg (1008.9 mb)
[Sea-level pressure: 1009.2 mb]
Winds: from the SE (130 degrees) at 10 MPH (9 knots; 4.6 m/s)
Visibility: 6 or more miles (10+ km)
Ceiling: 4400 feet AGL
Clouds: overcast cloud deck at 4400 feet AGL
Weather:
SOME DATA ABOVE MAY BE INACCURATE!!!
"$" is an indication the sensor requires maintenance

METAR text: EGUL 191356Z AUTO 13009KT 9999 OVC042 05/M01 A2979 RMK AO2 SLP092 T00501010 $
Conditions at: EGUL (LAKENHEATH RAF , GB) observed 1356 UTC 19 January 2019
Temperature: 5.0°C (41°F)
Dewpoint: -1.0°C (30°F) [RH = 65%]
Pressure (altimeter): 29.79 inches Hg (1008.9 mb)
[Sea-level pressure: 1009.2 mb]
Winds: from the SE (130 degrees) at 10 MPH (9 knots; 4.6 m/s)
Visibility: 6 or more miles (10+ km)
Ceiling: 4200 feet AGL
Clouds: overcast cloud deck at 4200 feet AGL
Weather:
SOME DATA ABOVE MAY BE INACCURATE!!!
"$" is an indication the sensor requires maintenance

METAR text: EGUL 191256Z AUTO 14009KT 9999 OVC046 05/M01 A2981 RMK AO2 SLP098 T00541011 $
Conditions at: EGUL (LAKENHEATH RAF , GB) observed 1256 UTC 19 January 2019
Temperature: 5.4°C (42°F)
Dewpoint: -1.1°C (30°F) [RH = 63%]
Pressure (altimeter): 29.81 inches Hg (1009.6 mb)
[Sea-level pressure: 1009.8 mb]
Winds: from the SE (140 degrees) at 10 MPH (9 knots; 4.6 m/s)
Visibility: 6 or more miles (10+ km)
Ceiling: 4600 feet AGL
Clouds: overcast cloud deck at 4600 feet AGL
Weather:
SOME DATA ABOVE MAY BE INACCURATE!!!
"$" is an indication the sensor requires maintenance

METAR text: EGUL 191156Z AUTO 14006KT 9999 OVC049 04/00 A2982 RMK AO2 SLP102 T00431005 10043 20006 57007 $
Conditions at: EGUL (LAKENHEATH RAF , GB) observed 1156 UTC 19 January 2019
Temperature: 4.3°C (40°F)
Dewpoint: -0.5°C (31°F) [RH = 71%]
Pressure (altimeter): 29.82 inches Hg (1009.9 mb)
[Sea-level pressure: 1010.2 mb]
Winds: from the SE (140 degrees) at 7 MPH (6 knots; 3.1 m/s)
Visibility: 6 or more miles (10+ km)
Ceiling: 4900 feet AGL
Clouds: overcast cloud deck at 4900 feet AGL
Weather:
SOME DATA ABOVE MAY BE INACCURATE!!!
"$" is an indication the sensor requires maintenance